Time;durP1;ratioP1;P1;durP2;ratioP2;P2;SDS_P1;SDS_P2;PMS_P1;PMS_P2;Temp;Humidity;BMP_temperature;BMP_pressure;BME280_temperature;BME280_humidity;BME280_pressure;Samples;Min_cycle;Max_cycle;Signal;HPM_P1;HPM_P2
2022/05/19 00:02:08;;;;;;;5.60;4.70;;;20.30;74.20;;;;;;6156975;23;20441;-89
2022/05/19 00:04:37;;;;;;;5.37;4.20;;;20.20;74.70;;;;;;6156204;23;20440;-86
2022/05/19 00:07:13;;;;;;;8.20;3.80;;;20.20;74.60;;;;;;6155136;23;20908;-87
2022/05/19 00:09:40;;;;;;;6.30;4.03;;;20.10;75.10;;;;;;6179210;23;20389;-89
2022/05/19 00:12:10;;;;;;;8.27;4.50;;;20.10;75.30;;;;;;6182331;23;20456;-87
2022/05/19 00:14:37;;;;;;;5.30;4.23;;;20.10;75.30;;;;;;6178479;23;20420;-90
2022/05/19 00:17:05;;;;;;;5.57;4.53;;;20.10;75.10;;;;;;6181024;23;20388;-90
2022/05/19 00:19:32;;;;;;;4.90;4.40;;;20.00;75.00;;;;;;6170800;23;20419;-87
2022/05/19 00:22:00;;;;;;;6.47;5.03;;;19.90;75.10;;;;;;6164826;23;20452;-88
2022/05/19 00:24:27;;;;;;;5.40;4.90;;;19.90;75.10;;;;;;6166512;23;20432;-87
2022/05/19 00:26:53;;;;;;;5.23;4.30;;;19.80;75.30;;;;;;6154690;23;20421;-87
2022/05/19 00:29:20;;;;;;;4.87;4.33;;;19.80;75.50;;;;;;6154979;23;20413;-87
2022/05/19 00:31:47;;;;;;;7.93;5.00;;;19.80;75.30;;;;;;6176506;23;20415;-88
2022/05/19 00:34:14;;;;;;;4.73;4.33;;;19.70;75.00;;;;;;6172434;23;20516;-89
2022/05/19 00:36:40;;;;;;;4.90;4.47;;;19.60;75.30;;;;;;6154341;23;20402;-87
2022/05/19 00:39:10;;;;;;;8.30;4.73;;;19.60;75.50;;;;;;6156986;23;20404;-87
2022/05/19 00:41:42;;;;;;;6.93;4.70;;;19.50;75.90;;;;;;6171938;23;20426;-89
2022/05/19 00:44:08;;;;;;;5.60;4.00;;;19.50;76.10;;;;;;6164027;23;20495;-87
2022/05/19 00:46:45;;;;;;;4.20;3.80;;;19.50;76.40;;;;;;6154174;23;20421;-87
2022/05/19 00:49:16;;;;;;;6.60;4.80;;;19.50;76.60;;;;;;6155829;23;20393;-87
2022/05/19 00:51:51;;;;;;;6.10;5.27;;;19.40;76.80;;;;;;6154745;23;20412;-87
2022/05/19 00:54:24;;;;;;;4.73;4.30;;;19.30;77.10;;;;;;6176430;23;20416;-88
2022/05/19 00:56:57;;;;;;;4.63;4.00;;;19.30;77.40;;;;;;6168959;23;20400;-87
2022/05/19 00:59:30;;;;;;;8.80;4.40;;;19.20;77.20;;;;;;6159752;23;20381;-88
2022/05/19 01:01:57;;;;;;;6.13;4.43;;;19.30;76.40;;;;;;6158689;23;20431;-87
2022/05/19 01:04:28;;;;;;;5.73;4.43;;;19.30;75.70;;;;;;6157783;23;20648;-86
2022/05/19 01:06:59;;;;;;;5.70;4.50;;;19.20;76.30;;;;;;6165589;23;20408;-86
2022/05/19 01:09:34;;;;;;;5.80;3.80;;;19.10;76.40;;;;;;6178458;23;20392;-87
2022/05/19 01:12:01;;;;;;;4.77;4.27;;;19.10;77.10;;;;;;6159050;23;20786;-87
2022/05/19 01:14:28;;;;;;;5.53;5.00;;;19.10;77.10;;;;;;6157701;23;20439;-87
2022/05/19 01:16:56;;;;;;;7.93;4.90;;;19.10;77.30;;;;;;6166228;23;20428;-87
2022/05/19 01:19:32;;;;;;;5.50;4.67;;;18.90;77.50;;;;;;6175609;23;20405;-87
2022/05/19 01:22:04;;;;;;;7.93;6.23;;;18.90;77.90;;;;;;6161247;23;20787;-90
2022/05/19 01:24:41;;;;;;;6.60;5.57;;;18.80;78.20;;;;;;6157606;23;20437;-87
2022/05/19 01:27:09;;;;;;;6.70;6.00;;;18.70;78.90;;;;;;6156088;23;20407;-87
2022/05/19 01:29:36;;;;;;;7.20;5.90;;;18.60;79.00;;;;;;6156019;23;20398;-87
2022/05/19 01:32:04;;;;;;;5.90;5.10;;;18.60;79.60;;;;;;6157066;23;20727;-86
2022/05/19 01:34:34;;;;;;;7.37;5.77;;;18.70;80.00;;;;;;6158166;23;21003;-86
2022/05/19 01:37:02;;;;;;;6.10;5.50;;;18.70;79.90;;;;;;6157833;23;20744;-86
2022/05/19 01:39:31;;;;;;;7.93;6.20;;;18.60;80.10;;;;;;6157159;23;20408;-86
2022/05/19 01:42:13;;;;;;;7.07;5.73;;;18.70;80.50;;;;;;6157008;23;20431;-87
2022/05/19 01:44:51;;;;;;;8.10;7.30;;;18.60;80.50;;;;;;6157171;23;20438;-86
2022/05/19 01:47:27;;;;;;;7.60;6.90;;;18.50;80.80;;;;;;6157176;23;20710;-87
2022/05/19 01:50:08;;;;;;;13.63;9.03;;;18.60;81.10;;;;;;6162068;23;20375;-87
2022/05/19 01:52:40;;;;;;;9.37;8.37;;;18.40;81.20;;;;;;6158079;23;20454;-87
2022/05/19 01:55:15;;;;;;;10.83;7.13;;;18.50;81.90;;;;;;6168355;23;20398;-88
2022/05/19 01:57:51;;;;;;;8.47;6.50;;;18.50;82.10;;;;;;6178891;23;20377;-90
2022/05/19 02:00:20;;;;;;;9.63;7.60;;;18.40;82.60;;;;;;6178112;23;20433;-87
2022/05/19 02:02:52;;;;;;;9.17;7.17;;;18.30;83.10;;;;;;6172564;23;20450;-87
2022/05/19 02:05:31;;;;;;;9.40;7.43;;;18.30;83.40;;;;;;6158989;23;20395;-87
2022/05/19 02:08:01;;;;;;;8.80;7.20;;;18.30;83.60;;;;;;6159656;23;20432;-87
2022/05/19 02:10:32;;;;;;;9.70;7.43;;;18.30;83.80;;;;;;6159504;23;20921;-87
2022/05/19 02:13:02;;;;;;;9.60;7.57;;;18.20;84.10;;;;;;6163974;23;20426;-88
2022/05/19 02:15:34;;;;;;;8.23;7.13;;;18.20;84.30;;;;;;6169439;23;20407;-88
2022/05/19 02:18:01;;;;;;;8.70;7.80;;;18.10;84.90;;;;;;6159358;23;20402;-87
2022/05/19 02:20:29;;;;;;;13.00;8.00;;;18.10;85.40;;;;;;6156218;23;20906;-87
2022/05/19 02:22:57;;;;;;;9.43;8.37;;;18.10;85.70;;;;;;6156281;23;20453;-87
2022/05/19 02:25:28;;;;;;;10.73;8.67;;;18.10;85.70;;;;;;6156502;23;20896;-86
2022/05/19 02:28:02;;;;;;;10.87;7.83;;;18.10;86.00;;;;;;6156354;23;20737;-88
2022/05/19 02:30:31;;;;;;;10.27;8.00;;;18.00;85.90;;;;;;6156599;23;20385;-87
2022/05/19 02:32:58;;;;;;;10.90;8.00;;;18.00;86.00;;;;;;6156107;23;20440;-87
2022/05/19 02:35:25;;;;;;;9.93;8.90;;;18.00;86.30;;;;;;6155704;23;20414;-86
2022/05/19 02:37:52;;;;;;;11.50;8.00;;;17.90;86.60;;;;;;6157742;23;20417;-87
2022/05/19 02:40:21;;;;;;;12.43;7.30;;;17.80;87.50;;;;;;6183186;23;20395;-91
2022/05/19 02:42:48;;;;;;;9.53;7.83;;;17.70;88.40;;;;;;6173464;23;20449;-86
2022/05/19 02:45:18;;;;;;;8.53;7.23;;;17.80;89.40;;;;;;6168217;23;20410;-87
2022/05/19 02:47:44;;;;;;;7.90;7.10;;;17.70;90.20;;;;;;6181698;23;20441;-87
2022/05/19 02:50:13;;;;;;;10.43;8.07;;;17.70;90.50;;;;;;6167052;23;20387;-87
2022/05/19 02:52:40;;;;;;;9.00;7.77;;;17.70;90.60;;;;;;6159913;23;20410;-87
2022/05/19 02:55:07;;;;;;;9.47;8.30;;;17.70;90.80;;;;;;6182160;23;20390;-90
2022/05/19 02:57:34;;;;;;;8.67;6.97;;;17.60;90.70;;;;;;6180688;23;20929;-86
2022/05/19 03:00:01;;;;;;;11.13;7.37;;;17.60;90.50;;;;;;6161439;23;20411;-86
2022/05/19 03:02:29;;;;;;;8.53;7.03;;;17.60;90.80;;;;;;6156439;23;20847;-87
2022/05/19 03:04:56;;;;;;;11.00;7.23;;;17.50;91.10;;;;;;6154965;23;20439;-87
2022/05/19 03:07:23;;;;;;;7.60;6.87;;;17.60;91.30;;;;;;6155902;23;20465;-86
2022/05/19 03:09:49;;;;;;;6.97;6.27;;;17.60;91.20;;;;;;6155956;23;20400;-87
2022/05/19 03:12:16;;;;;;;8.83;6.93;;;17.50;91.60;;;;;;6155979;23;20410;-87
2022/05/19 03:14:43;;;;;;;11.90;6.53;;;17.50;92.30;;;;;;6156064;23;20426;-87
2022/05/19 03:17:11;;;;;;;6.40;5.80;;;17.40;92.40;;;;;;6159814;23;20414;-87
2022/05/19 03:19:39;;;;;;;6.23;5.60;;;17.30;92.20;;;;;;6155792;23;20418;-86
2022/05/19 03:22:07;;;;;;;8.17;6.90;;;17.30;92.30;;;;;;6156001;23;20511;-87
2022/05/19 03:24:34;;;;;;;8.60;7.70;;;17.30;92.10;;;;;;6156000;23;20514;-87
2022/05/19 03:27:01;;;;;;;6.97;6.30;;;17.30;91.90;;;;;;6156338;23;20902;-86
2022/05/19 03:29:28;;;;;;;6.57;5.97;;;17.20;91.90;;;;;;6155522;23;20492;-87
2022/05/19 03:31:55;;;;;;;8.23;7.37;;;17.30;92.00;;;;;;6154277;23;20395;-87
2022/05/19 03:34:22;;;;;;;5.97;5.47;;;17.30;92.10;;;;;;6154394;23;20439;-88
2022/05/19 03:36:50;;;;;;;7.30;6.50;;;17.30;92.00;;;;;;6155133;23;20395;-86
2022/05/19 03:39:17;;;;;;;10.37;7.63;;;17.30;92.20;;;;;;6154998;23;20399;-86
2022/05/19 03:41:44;;;;;;;9.20;7.77;;;17.30;92.70;;;;;;6154871;23;20743;-86
2022/05/19 03:44:11;;;;;;;10.00;7.40;;;17.20;92.30;;;;;;6160079;23;20427;-87
2022/05/19 03:46:37;;;;;;;8.40;7.60;;;17.10;92.40;;;;;;6171420;23;20422;-87
2022/05/19 03:49:04;;;;;;;9.13;7.00;;;17.00;92.80;;;;;;6176823;23;20399;-88
2022/05/19 03:51:33;;;;;;;10.00;8.20;;;16.90;93.10;;;;;;6173420;23;20491;-87
2022/05/19 03:54:02;;;;;;;8.33;7.53;;;17.00;93.00;;;;;;6156823;23;20446;-88
2022/05/19 03:56:29;;;;;;;7.80;7.10;;;17.00;93.20;;;;;;6154712;23;20421;-87
2022/05/19 03:58:55;;;;;;;10.63;7.73;;;17.00;93.40;;;;;;6155239;23;20402;-86
2022/05/19 04:01:22;;;;;;;9.47;6.90;;;17.00;93.60;;;;;;6158409;23;20417;-86
2022/05/19 04:03:50;;;;;;;7.57;6.80;;;17.00;93.80;;;;;;6174697;23;20443;-88
2022/05/19 04:06:17;;;;;;;7.77;6.40;;;17.00;93.80;;;;;;6169621;23;20466;-89
2022/05/19 04:08:44;;;;;;;12.27;7.87;;;16.90;94.00;;;;;;6171415;23;20425;-87
2022/05/19 04:11:13;;;;;;;9.70;7.03;;;16.90;94.70;;;;;;6164459;23;20406;-87
2022/05/19 04:13:40;;;;;;;11.07;6.70;;;16.90;94.70;;;;;;6154557;23;20430;-86
2022/05/19 04:16:07;;;;;;;11.23;8.23;;;17.00;94.70;;;;;;6156425;23;20421;-87
2022/05/19 04:18:34;;;;;;;10.10;7.40;;;17.10;94.20;;;;;;6156519;23;20411;-86
2022/05/19 04:21:00;;;;;;;11.33;7.70;;;17.10;93.70;;;;;;6155106;23;20411;-86
2022/05/19 04:23:27;;;;;;;9.30;6.90;;;17.20;93.40;;;;;;6156191;23;20450;-86
2022/05/19 04:25:54;;;;;;;10.27;7.50;;;17.20;92.90;;;;;;6159686;23;20398;-87
2022/05/19 04:28:22;;;;;;;9.00;7.20;;;17.20;93.10;;;;;;6160171;23;20932;-86
2022/05/19 04:30:49;;;;;;;8.10;7.27;;;17.20;92.50;;;;;;6156371;23;20733;-87
2022/05/19 04:33:16;;;;;;;11.73;7.40;;;17.20;92.50;;;;;;6156005;23;20472;-87
2022/05/19 04:35:43;;;;;;;7.40;6.70;;;17.30;92.60;;;;;;6156695;23;20426;-86
2022/05/19 04:38:11;;;;;;;8.60;7.43;;;17.30;92.20;;;;;;6157298;23;20417;-87
2022/05/19 04:40:39;;;;;;;9.60;7.27;;;17.40;91.60;;;;;;6158313;23;20739;-87
2022/05/19 04:43:07;;;;;;;8.97;8.07;;;17.40;91.30;;;;;;6160577;23;20455;-87
2022/05/19 04:45:35;;;;;;;11.50;9.30;;;17.40;91.50;;;;;;6164844;23;20409;-87
2022/05/19 04:48:02;;;;;;;12.20;8.60;;;17.50;91.70;;;;;;6157731;23;20410;-87
2022/05/19 04:50:30;;;;;;;10.47;8.40;;;17.50;91.20;;;;;;6156445;23;20414;-87
2022/05/19 04:52:58;;;;;;;11.90;8.50;;;17.50;91.30;;;;;;6159352;23;20805;-89
2022/05/19 04:55:26;;;;;;;11.93;8.83;;;17.60;91.30;;;;;;6183669;23;20443;-90
2022/05/19 04:57:53;;;;;;;10.77;8.47;;;17.70;91.10;;;;;;6175025;23;20403;-87
2022/05/19 05:00:21;;;;;;;11.33;8.27;;;17.80;91.20;;;;;;6160559;23;20417;-87
2022/05/19 05:02:49;;;;;;;16.53;10.10;;;17.80;90.80;;;;;;6157408;23;20445;-87
2022/05/19 05:05:16;;;;;;;13.40;8.90;;;17.90;90.80;;;;;;6158328;23;20398;-87
2022/05/19 05:07:42;;;;;;;13.83;9.63;;;18.20;90.60;;;;;;6157720;23;20749;-87
2022/05/19 05:10:10;;;;;;;13.70;9.47;;;18.60;90.00;;;;;;6183202;23;20394;-90
2022/05/19 05:12:37;;;;;;;20.23;9.83;;;19.00;88.90;;;;;;6176343;23;20418;-87
2022/05/19 05:15:05;;;;;;;11.60;7.90;;;19.60;87.80;;;;;;6172793;23;20415;-90
2022/05/19 05:20:55;;;;;;;9.80;7.30;;;20.60;80.00;;;;;;6183277;23;20382;-89
2022/05/19 05:23:22;;;;;;;8.53;6.40;;;20.90;77.40;;;;;;6182145;23;20450;-89
2022/05/19 05:25:48;;;;;;;9.70;7.03;;;20.80;76.80;;;;;;6182072;23;20402;-82
2022/05/19 05:28:15;;;;;;;9.87;6.63;;;21.10;75.30;;;;;;6183008;23;20388;-81
2022/05/19 05:30:43;;;;;;;10.53;7.07;;;21.40;75.30;;;;;;6181382;23;20488;-82
2022/05/19 05:33:11;;;;;;;8.57;7.57;;;21.50;72.80;;;;;;6174758;23;20409;-81
2022/05/19 05:35:39;;;;;;;12.93;6.07;;;21.60;72.60;;;;;;6168816;23;20400;-82
2022/05/19 05:38:07;;;;;;;7.60;6.83;;;21.40;72.30;;;;;;6171532;23;20415;-81
2022/05/19 05:40:34;;;;;;;14.13;7.40;;;21.20;72.10;;;;;;6168623;23;20738;-81
2022/05/19 05:43:06;;;;;;;9.90;6.97;;;21.20;71.50;;;;;;6176585;23;20606;-81
2022/05/19 05:45:32;;;;;;;10.67;7.23;;;21.40;71.70;;;;;;6180256;23;20377;-81
2022/05/19 05:47:59;;;;;;;13.03;6.93;;;21.50;70.10;;;;;;6180154;23;20489;-81
2022/05/19 05:50:26;;;;;;;10.50;6.97;;;21.80;69.90;;;;;;6180523;23;20395;-81
2022/05/19 05:52:53;;;;;;;13.13;7.30;;;22.00;69.00;;;;;;6166759;23;20409;-81
2022/05/19 05:55:21;;;;;;;11.90;6.53;;;22.50;68.20;;;;;;6166828;23;20433;-81
2022/05/19 05:57:47;;;;;;;13.47;5.60;;;22.80;66.30;;;;;;6161719;23;20417;-81
2022/05/19 06:00:15;;;;;;;6.80;4.83;;;23.10;66.10;;;;;;6162285;23;20416;-81
2022/05/19 06:02:42;;;;;;;9.37;5.90;;;23.80;64.80;;;;;;6158585;23;20438;-81
2022/05/19 06:05:10;;;;;;;13.03;5.73;;;24.10;63.10;;;;;;6159591;23;20382;-81
2022/05/19 06:07:37;;;;;;;7.13;5.60;;;24.30;61.90;;;;;;6158792;23;21050;-81
2022/05/19 06:10:04;;;;;;;8.20;5.70;;;24.30;60.60;;;;;;6177617;23;20414;-80
2022/05/19 06:12:32;;;;;;;6.13;5.20;;;24.50;61.00;;;;;;6175922;23;20778;-81
2022/05/19 06:14:59;;;;;;;7.27;4.67;;;24.80;59.90;;;;;;6173456;23;20413;-81
2022/05/19 06:17:26;;;;;;;6.20;5.10;;;24.80;59.60;;;;;;6163836;23;20441;-81
2022/05/19 06:19:53;;;;;;;5.97;4.47;;;24.80;59.60;;;;;;6161391;23;20399;-81
2022/05/19 06:22:22;;;;;;;7.87;4.83;;;25.10;58.30;;;;;;6159107;23;20443;-81
2022/05/19 06:24:49;;;;;;;6.20;4.70;;;25.10;58.60;;;;;;6160747;23;20431;-81
2022/05/19 06:27:16;;;;;;;4.93;4.43;;;25.50;58.90;;;;;;6160460;23;20421;-81
2022/05/19 06:29:45;;;;;;;6.80;4.70;;;25.60;58.10;;;;;;6157703;23;20417;-81
2022/05/19 06:32:11;;;;;;;8.50;5.03;;;26.00;57.90;;;;;;6158039;23;20397;-82
2022/05/19 06:34:39;;;;;;;6.87;4.20;;;26.50;56.30;;;;;;6160482;23;20791;-82
2022/05/19 06:37:06;;;;;;;9.13;4.80;;;26.90;55.20;;;;;;6160244;23;20514;-81
2022/05/19 06:39:33;;;;;;;7.17;4.20;;;27.20;54.50;;;;;;6159769;23;20395;-81
2022/05/19 06:42:02;;;;;;;6.23;4.60;;;27.10;54.10;;;;;;6162744;23;20425;-81
2022/05/19 06:44:31;;;;;;;6.70;4.00;;;27.40;53.70;;;;;;6157060;23;20958;-81
2022/05/19 06:47:00;;;;;;;8.87;4.50;;;27.80;53.50;;;;;;6158861;23;20414;-81
2022/05/19 06:49:27;;;;;;;7.53;4.50;;;28.00;53.30;;;;;;6156896;23;20400;-81
2022/05/19 06:51:54;;;;;;;6.00;5.33;;;28.30;52.60;;;;;;6157892;23;20792;-81
2022/05/19 06:54:21;;;;;;;8.53;4.73;;;28.70;52.40;;;;;;6160020;23;20690;-81
2022/05/19 06:56:49;;;;;;;7.07;4.20;;;28.80;51.40;;;;;;6157307;23;20414;-81
2022/05/19 06:59:16;;;;;;;5.13;4.63;;;28.60;51.40;;;;;;6171314;23;20414;-81
2022/05/19 07:01:43;;;;;;;5.47;3.83;;;28.60;51.80;;;;;;6161786;23;20411;-82
2022/05/19 07:04:11;;;;;;;6.87;4.47;;;29.00;51.30;;;;;;6157917;23;21025;-83
2022/05/19 07:06:38;;;;;;;4.77;4.27;;;29.10;50.60;;;;;;6158043;23;20396;-83
2022/05/19 07:09:05;;;;;;;11.07;4.43;;;29.00;51.40;;;;;;6156489;23;20403;-83
2022/05/19 07:11:31;;;;;;;6.20;4.10;;;29.50;51.40;;;;;;6168624;23;20523;-82
2022/05/19 07:14:00;;;;;;;7.00;4.97;;;29.10;50.50;;;;;;6164199;23;20422;-82
2022/05/19 07:16:27;;;;;;;5.23;4.20;;;28.90;51.10;;;;;;6158758;23;20426;-83
2022/05/19 07:20:43;;;;;;;4.63;4.10;;;29.00;52.90;;;;;;6158000;23;20413;-83
2022/05/19 07:21:42;;;;;;;8.87;4.10;;;29.60;51.10;;;;;;6156182;23;20482;-82
2022/05/19 07:24:15;;;;;;;8.30;4.20;;;29.80;50.50;;;;;;6155717;23;20964;-83
2022/05/19 07:26:42;;;;;;;5.37;3.90;;;30.60;50.70;;;;;;6155691;23;20407;-84
2022/05/19 07:29:09;;;;;;;6.40;4.27;;;30.70;48.50;;;;;;6156414;23;20416;-82
2022/05/19 07:31:36;;;;;;;13.20;4.33;;;31.00;49.30;;;;;;6163054;23;20410;-84
2022/05/19 07:34:03;;;;;;;7.30;4.03;;;31.20;48.40;;;;;;6161637;23;20422;-85
2022/05/19 07:36:31;;;;;;;5.70;4.13;;;31.20;48.60;;;;;;6176253;23;20417;-84
2022/05/19 07:39:00;;;;;;;8.80;3.40;;;32.00;48.00;;;;;;6176625;23;20467;-84
2022/05/19 07:41:27;;;;;;;5.23;3.60;;;32.30;47.20;;;;;;6177551;23;20418;-86
2022/05/19 07:43:55;;;;;;;6.47;4.00;;;31.80;48.00;;;;;;6174186;23;20456;-85
2022/05/19 07:46:23;;;;;;;5.10;4.20;;;31.90;47.80;;;;;;6161776;23;20462;-86
2022/05/19 07:48:50;;;;;;;5.57;3.90;;;32.10;47.30;;;;;;6162473;23;20410;-87
2022/05/19 07:51:17;;;;;;;6.00;3.93;;;31.60;48.30;;;;;;6160905;23;20611;-85
2022/05/19 07:53:44;;;;;;;4.60;3.90;;;31.90;47.90;;;;;;6165018;23;20434;-87
2022/05/19 07:56:12;;;;;;;9.07;4.27;;;32.10;47.40;;;;;;6166969;23;20407;-87
2022/05/19 07:58:38;;;;;;;5.10;4.17;;;31.80;47.90;;;;;;6175072;23;20430;-86
2022/05/19 08:01:05;;;;;;;4.80;4.40;;;31.30;48.30;;;;;;6162816;23;20410;-86
2022/05/19 08:03:32;;;;;;;7.83;4.00;;;31.90;48.80;;;;;;6158266;23;20458;-86
2022/05/19 08:06:00;;;;;;;5.10;3.90;;;32.00;48.00;;;;;;6158199;23;20784;-86
2022/05/19 08:08:27;;;;;;;6.23;4.40;;;31.90;48.40;;;;;;6156233;23;20394;-85
2022/05/19 08:10:55;;;;;;;8.00;4.00;;;32.60;47.80;;;;;;6158520;23;20406;-84
2022/05/19 08:16:08;;;;;;;10.57;3.47;;;33.20;46.70;;;;;;6157780;23;20402;-86
2022/05/19 08:18:34;;;;;;;4.67;3.87;;;33.40;46.40;;;;;;6158737;23;20429;-85
2022/05/19 08:21:04;;;;;;;5.33;4.77;;;34.30;45.10;;;;;;6165256;23;20909;-85
2022/05/19 08:23:33;;;;;;;7.20;3.70;;;35.00;44.40;;;;;;6161553;23;20450;-85
2022/05/19 08:26:01;;;;;;;6.23;4.03;;;35.70;43.40;;;;;;6157946;23;20407;-85
2022/05/19 08:28:30;;;;;;;6.20;4.33;;;36.30;43.20;;;;;;6158498;23;20422;-85
2022/05/19 08:30:59;;;;;;;5.33;3.80;;;37.10;41.90;;;;;;6162464;23;20411;-86
2022/05/19 08:33:27;;;;;;;3.73;3.40;;;37.10;41.10;;;;;;6159460;23;20822;-86
2022/05/19 08:35:54;;;;;;;7.70;3.97;;;37.30;40.90;;;;;;6156388;23;20418;-86
2022/05/19 08:38:22;;;;;;;4.63;3.87;;;37.60;40.60;;;;;;6157114;23;20912;-85
2022/05/19 08:40:51;;;;;;;4.50;4.10;;;37.60;39.90;;;;;;6156731;23;20561;-87
2022/05/19 08:43:20;;;;;;;7.17;3.67;;;36.90;40.80;;;;;;6157116;23;20482;-86
2022/05/19 08:45:51;;;;;;;6.00;3.80;;;37.40;40.80;;;;;;6157118;23;21190;-85
2022/05/19 08:48:21;;;;;;;5.03;3.80;;;37.70;39.90;;;;;;6169627;23;20387;-85
2022/05/19 08:50:52;;;;;;;5.30;3.27;;;38.10;39.90;;;;;;6163632;23;20454;-85
2022/05/19 08:53:19;;;;;;;4.70;4.30;;;38.40;40.30;;;;;;6159030;23;20429;-85
2022/05/19 08:55:51;;;;;;;5.70;3.90;;;38.70;39.10;;;;;;6157072;23;20438;-85
2022/05/19 08:58:51;;;;;;;4.67;4.17;;;38.10;39.70;;;;;;6157214;23;20458;-85
2022/05/19 09:01:25;;;;;;;5.53;3.97;;;37.90;39.00;;;;;;6151406;23;20470;-85
2022/05/19 09:04:01;;;;;;;5.40;3.80;;;37.70;39.90;;;;;;6155756;23;20453;-85
2022/05/19 09:06:38;;;;;;;4.30;3.60;;;38.50;39.60;;;;;;6155233;23;20391;-85
2022/05/19 09:09:21;;;;;;;3.33;3.03;;;37.50;40.80;;;;;;6154553;23;20406;-86
2022/05/19 09:11:56;;;;;;;12.27;4.93;;;37.70;39.20;;;;;;6158730;23;20391;-86
2022/05/19 09:14:25;;;;;;;5.20;3.77;;;38.20;39.40;;;;;;6157673;23;20425;-84
2022/05/19 09:16:57;;;;;;;6.17;3.60;;;37.20;39.50;;;;;;6166658;23;20406;-84
2022/05/19 09:19:30;;;;;;;10.63;4.33;;;36.90;40.40;;;;;;6182482;23;20394;-86
2022/05/19 09:22:04;;;;;;;5.43;3.60;;;37.00;41.20;;;;;;6175875;23;20501;-86
2022/05/19 09:24:34;;;;;;;7.90;4.20;;;37.40;40.80;;;;;;6160165;23;20454;-87
2022/05/19 09:27:02;;;;;;;11.97;5.37;;;37.90;40.40;;;;;;6162634;23;20418;-85
2022/05/19 09:29:33;;;;;;;5.00;3.77;;;37.40;40.60;;;;;;6160525;23;20398;-85
2022/05/19 09:32:08;;;;;;;6.73;3.60;;;37.30;41.00;;;;;;6160184;23;20406;-85
2022/05/19 09:34:36;;;;;;;5.43;3.87;;;38.10;40.00;;;;;;6160005;23;20422;-85
2022/05/19 09:37:08;;;;;;;5.10;3.60;;;38.80;39.80;;;;;;6159239;23;20411;-85
2022/05/19 09:39:44;;;;;;;3.83;3.23;;;38.50;39.50;;;;;;6160319;23;20407;-85
2022/05/19 09:42:17;;;;;;;4.23;3.70;;;38.30;39.70;;;;;;6159267;23;20378;-85
2022/05/19 09:44:48;;;;;;;9.63;3.93;;;38.70;39.20;;;;;;6159473;23;20446;-85
2022/05/19 09:47:28;;;;;;;4.63;4.10;;;38.90;39.40;;;;;;6167260;23;20398;-84
2022/05/19 09:49:57;;;;;;;4.30;3.57;;;39.70;38.40;;;;;;6163423;23;20429;-84
2022/05/19 09:52:32;;;;;;;7.70;3.90;;;40.10;38.00;;;;;;6164490;23;20403;-87
2022/05/19 09:55:04;;;;;;;5.17;3.80;;;40.70;37.40;;;;;;6163491;23;20521;-88
2022/05/19 09:57:40;;;;;;;3.97;3.63;;;40.80;36.70;;;;;;6171526;23;20376;-87
2022/05/19 10:00:19;;;;;;;4.50;4.10;;;40.20;37.70;;;;;;6181693;23;20395;-89
2022/05/19 10:02:52;;;;;;;3.83;3.53;;;39.70;37.20;;;;;;6167102;23;20452;-88
2022/05/19 10:05:31;;;;;;;4.23;3.83;;;40.00;37.20;;;;;;6179002;23;20431;-87
2022/05/19 10:08:05;;;;;;;4.10;3.70;;;39.80;38.30;;;;;;6176031;23;20375;-88
2022/05/19 10:10:33;;;;;;;4.23;3.83;;;40.30;37.70;;;;;;6174642;23;20391;-87
2022/05/19 10:13:04;;;;;;;5.43;3.83;;;39.90;37.40;;;;;;6160796;23;20442;-87
2022/05/19 10:15:55;;;;;;;4.37;3.67;;;39.80;37.40;;;;;;6160740;23;20470;-87
2022/05/19 10:18:39;;;;;;;3.80;3.50;;;38.70;38.70;;;;;;6159673;23;20436;-86
2022/05/19 10:21:17;;;;;;;4.10;3.70;;;38.80;39.10;;;;;;6157839;23;20379;-87
2022/05/19 10:24:01;;;;;;;4.50;4.10;;;39.60;37.90;;;;;;6156822;23;20961;-87
2022/05/19 10:26:42;;;;;;;3.77;3.37;;;40.30;37.40;;;;;;6157276;23;20399;-88
2022/05/19 10:32:46;;;;;;;5.43;3.70;;;40.10;37.20;;;;;;6159163;23;20426;-89
2022/05/19 10:35:25;;;;;;;5.37;4.40;;;40.70;36.60;;;;;;6177541;23;20451;-88
2022/05/19 10:38:03;;;;;;;4.80;3.90;;;40.30;36.60;;;;;;6163048;23;20484;-89
2022/05/19 10:40:47;;;;;;;4.10;3.77;;;40.00;37.30;;;;;;6165597;23;20386;-89
2022/05/19 10:43:30;;;;;;;7.97;3.90;;;40.70;36.80;;;;;;6170689;23;20501;-87
2022/05/19 10:45:59;;;;;;;4.83;4.33;;;41.10;36.20;;;;;;6158940;23;20489;-88
2022/05/19 10:48:48;;;;;;;7.30;4.70;;;41.90;35.50;;;;;;6157649;23;20894;-88
2022/05/19 10:51:19;;;;;;;4.50;4.10;;;43.00;35.00;;;;;;6159995;23;20421;-86
2022/05/19 10:54:03;;;;;;;5.10;3.80;;;42.80;34.50;;;;;;6161815;23;20415;-87
2022/05/19 10:56:56;;;;;;;4.37;3.90;;;42.90;34.40;;;;;;6159732;23;20858;-87
2022/05/19 10:59:37;;;;;;;4.90;4.40;;;42.70;35.80;;;;;;6158759;23;20407;-87
2022/05/19 11:02:20;;;;;;;5.37;3.97;;;42.60;34.30;;;;;;6162382;23;20402;-87
2022/05/19 11:05:05;;;;;;;4.67;4.27;;;41.80;35.70;;;;;;6161068;23;20446;-87
2022/05/19 11:07:41;;;;;;;4.70;4.00;;;41.60;36.30;;;;;;6157537;23;20451;-88
2022/05/19 11:10:23;;;;;;;3.60;3.27;;;42.30;35.10;;;;;;6158698;23;20423;-88
2022/05/19 11:12:58;;;;;;;4.50;4.07;;;43.10;34.80;;;;;;6158107;23;20387;-87
2022/05/19 11:15:31;;;;;;;3.70;3.40;;;43.50;34.40;;;;;;6156986;23;20398;-88
2022/05/19 11:18:04;;;;;;;4.30;3.90;;;44.30;34.10;;;;;;6158103;23;20395;-86
2022/05/19 11:20:34;;;;;;;5.20;4.07;;;44.70;33.10;;;;;;6159005;23;20394;-86
2022/05/19 11:23:09;;;;;;;4.33;3.63;;;44.70;32.20;;;;;;6167277;23;20419;-85
2022/05/19 11:28:35;;;;;;;4.97;3.67;;;44.00;32.40;;;;;;6183209;23;20387;-85
2022/05/19 11:31:09;;;;;;;4.00;3.60;;;43.90;32.90;;;;;;6182766;23;20379;-85
2022/05/19 11:33:39;;;;;;;4.93;3.83;;;44.50;32.10;;;;;;6179679;23;20427;-87
2022/05/19 11:36:16;;;;;;;7.00;4.17;;;44.90;31.80;;;;;;6164231;23;20387;-86
2022/05/19 11:38:52;;;;;;;4.23;3.83;;;45.20;31.10;;;;;;6182801;23;20379;-85
2022/05/19 11:41:24;;;;;;;4.40;4.00;;;46.00;31.00;;;;;;6182649;23;20375;-85
2022/05/19 11:43:56;;;;;;;5.23;3.90;;;46.40;30.50;;;;;;6182181;23;20417;-85
2022/05/19 11:46:30;;;;;;;4.00;3.50;;;45.90;30.60;;;;;;6170555;23;20462;-85
2022/05/19 11:57:37;;;;;;;4.50;4.10;;;46.20;29.60;;;;;;6158317;23;20483;-84
2022/05/19 12:00:08;;;;;;;4.47;3.70;;;47.40;29.70;;;;;;6159163;23;20482;-86
2022/05/19 12:02:41;;;;;;;4.40;4.00;;;46.40;29.80;;;;;;6159327;23;20413;-87
2022/05/19 12:05:13;;;;;;;4.23;3.83;;;44.60;31.10;;;;;;6159574;23;20449;-86
2022/05/19 12:07:49;;;;;;;4.80;4.30;;;43.20;31.50;;;;;;6157950;23;20387;-86
2022/05/19 12:10:23;;;;;;;5.43;4.47;;;43.10;32.70;;;;;;6158517;23;20846;-86
2022/05/19 12:12:57;;;;;;;5.37;4.83;;;43.30;32.30;;;;;;6157939;23;20414;-86
2022/05/19 12:15:27;;;;;;;4.43;4.03;;;43.80;32.30;;;;;;6157616;23;20474;-87
2022/05/19 12:17:58;;;;;;;4.70;4.40;;;44.50;32.00;;;;;;6159584;23;20789;-86
2022/05/19 12:20:51;;;;;;;4.97;4.33;;;45.20;31.60;;;;;;6179731;23;20410;-86
2022/05/19 12:23:26;;;;;;;3.93;3.63;;;45.60;30.60;;;;;;6069406;23;20426;-86
2022/05/19 12:25:56;;;;;;;4.07;3.77;;;44.30;31.50;;;;;;6177288;23;20470;-86
2022/05/19 12:28:33;;;;;;;4.83;4.43;;;45.40;30.80;;;;;;6173389;23;20391;-86
2022/05/19 12:33:52;;;;;;;4.50;4.10;;;45.30;31.00;;;;;;6169846;23;20436;-84
2022/05/19 12:36:27;;;;;;;5.53;3.90;;;44.50;31.10;;;;;;6176369;23;20437;-84
2022/05/19 12:39:09;;;;;;;5.57;4.20;;;42.80;32.80;;;;;;6163960;23;20469;-85
2022/05/19 12:41:42;;;;;;;4.83;3.90;;;43.00;33.60;;;;;;6162528;23;20441;-85
2022/05/19 12:44:30;;;;;;;5.10;4.60;;;43.60;33.10;;;;;;6158150;23;20435;-85
2022/05/19 12:47:08;;;;;;;4.10;3.80;;;44.10;32.90;;;;;;6157652;23;20411;-85
2022/05/19 12:49:36;;;;;;;7.00;4.23;;;43.80;32.30;;;;;;6157829;23;20391;-86
2022/05/19 12:52:10;;;;;;;5.47;4.27;;;43.90;32.30;;;;;;6157684;23;20417;-86
2022/05/19 12:54:50;;;;;;;4.87;4.40;;;45.00;31.80;;;;;;6157830;23;20430;-87
2022/05/19 12:57:28;;;;;;;5.53;4.20;;;45.00;31.60;;;;;;6158864;23;20400;-87
2022/05/19 13:00:19;;;;;;;5.10;4.33;;;44.90;31.90;;;;;;6167777;23;20395;-85
2022/05/19 13:02:56;;;;;;;5.70;5.20;;;43.70;32.30;;;;;;6172224;23;20403;-86
2022/05/19 13:05:30;;;;;;;4.80;4.33;;;43.30;33.00;;;;;;6173976;23;20426;-85
2022/05/19 13:08:03;;;;;;;5.73;4.27;;;42.50;33.30;;;;;;6170822;23;20574;-85
2022/05/19 13:10:36;;;;;;;5.17;4.77;;;42.30;34.10;;;;;;6164874;23;20379;-86
2022/05/19 13:13:08;;;;;;;6.50;4.30;;;42.60;33.60;;;;;;6165967;23;20422;-85
2022/05/19 13:15:48;;;;;;;5.13;4.63;;;42.00;34.20;;;;;;6164424;23;20391;-86
2022/05/19 13:18:16;;;;;;;6.47;4.80;;;40.10;36.20;;;;;;6161976;23;20399;-86
2022/05/19 13:20:43;;;;;;;5.43;4.93;;;39.90;37.10;;;;;;6163299;23;20403;-86
2022/05/19 13:23:20;;;;;;;5.13;4.30;;;40.70;36.70;;;;;;6160729;23;20426;-86
2022/05/19 13:25:50;;;;;;;8.20;4.70;;;41.20;35.60;;;;;;6160267;23;20430;-86
2022/05/19 13:31:08;;;;;;;5.50;5.00;;;41.50;35.40;;;;;;6162594;23;20378;-85